Sigfox identifier Datetime Temperature Humidity SNR
00393845 2018-10-09 06:41:56 20.5 38 13.6
00393845 2018-10-09 05:34:18 20.4 38 13.7
00393845 2018-10-09 02:11:36 20.4 37 13.9
00393845 2018-10-08 23:56:25 20.4 37 13.9
00393845 2018-10-08 22:48:51 20.4 37 13.9
00393845 2018-10-08 20:33:43 20.4 37 14
00393845 2018-10-08 11:33:06 20.2 34 13.9
00393845 2018-10-08 10:25:33 20.2 32 13.7
00393845 2018-10-08 09:17:58 20 31 13.7
00393845 2018-10-08 08:10:19 20 32 13.4
00393845 2018-10-08 07:02:40 20.2 34 13.4
00393845 2018-10-08 05:55:03 20.2 34 13.4
00393845 2018-10-08 04:47:30 20.1 34 13.3
00393845 2018-10-08 03:39:50 20.2 35 13.3
00393845 2018-10-08 02:32:16 20.2 35 13.4
00393845 2018-10-08 01:24:40 20.2 36 13.5
00393845 2018-10-08 00:17:08 20.2 36 13.7
00393845 2018-10-07 23:09:27 20.2 37 13.7
00393845 2018-10-07 22:01:52 20.3 38 13.7
00393845 2018-10-07 20:54:18 20.3 38 13.6
00393845 2018-10-07 19:46:44 20.4 38 13.7
00393845 2018-10-07 18:39:13 20.4 39 13.4
00393845 2018-10-07 17:31:33 20.4 39 13.6
00393845 2018-10-07 16:23:58 20.3 38 13.3
00393845 2018-10-07 15:16:24 20.4 38 12.9
00393845 2018-10-07 14:08:51 20.4 38 12.9
00393845 2018-10-07 13:01:14 20.4 38 12.9
00393845 2018-10-07 11:53:39 20.4 38 13.1
00393845 2018-10-07 10:46:05 20.4 38 13.3
00393845 2018-10-07 09:38:28 20.4 38 13.3
00393845 2018-10-07 08:30:58 20.4 39 13.4
00393845 2018-10-07 07:23:21 20.4 39 13.3
00393845 2018-10-07 06:15:45 20.4 39 13.2
00393845 2018-10-07 04:00:34 20.5 40 13.4
00393845 2018-10-07 01:45:23 20.6 40 13.5
00393845 2018-10-07 00:37:48 20.6 40 13.4
00393845 2018-10-06 23:30:07 20.6 40 13.6
00393845 2018-10-06 22:22:35 20.6 40 13.6
00393845 2018-10-06 21:14:54 20.6 40 13.7
00393845 2018-10-06 20:07:21 20.6 40 13.7
00393845 2018-10-06 18:59:45 20.6 40 15.3
00393845 2018-10-06 17:52:12 20.6 40 15.2
00393845 2018-10-06 16:44:37 20.6 40 15.2
00393845 2018-10-06 15:37:03 20.6 40 15.3
00393845 2018-10-06 14:29:29 20.6 40 15.4
00393845 2018-10-06 13:21:55 20.7 40 15.5
00393845 2018-10-06 12:14:17 20.6 40 15.7
00393845 2018-10-06 11:06:39 20.6 40 15.7
00393845 2018-10-06 09:59:01 20.6 40 15.9
00393845 2018-10-06 08:51:30 20.6 40 16.1
00393845 2018-10-06 07:43:55 20.8 40 16.3
00393845 2018-10-06 06:36:19 20.8 41 16.5
00393845 2018-10-06 05:28:44 20.8 41 16.5
00393845 2018-10-06 04:21:10 20.8 42 16.6
00393845 2018-10-06 03:13:37 20.8 42 16.9
00393845 2018-10-06 02:06:00 21 42 17
00393845 2018-10-06 00:58:23 21 43 17.2
00393845 2018-10-05 23:50:50 21 43 17.6
00393845 2018-10-05 22:43:14 21 44 17.7
00393845 2018-10-05 21:35:38 21.1 44 18
00393845 2018-10-05 20:28:05 21.2 45 18.8
00393845 2018-10-05 19:20:30 21.3 45 19.4
00393845 2018-10-05 18:12:52 21.4 45 20.4
00393845 2018-10-05 17:05:16 21.5 46 21.8
00393845 2018-10-05 14:50:04 21.8 46 24.5
00393845 2018-10-05 13:42:21 21.7 60 0